sensor_id;sensor_type;location;lat;lon;timestamp;temperature;humidity
5258;DHT22;2651;51.594;9.928;2024-03-29T00:00:37;8.20;1.00
5258;DHT22;2651;51.594;9.928;2024-03-29T00:01:38;8.20;99.90
5258;DHT22;2651;51.594;9.928;2024-03-29T00:02:39;8.20;99.90
5258;DHT22;2651;51.594;9.928;2024-03-29T00:03:39;8.20;99.90
5258;DHT22;2651;51.594;9.928;2024-03-29T00:04:40;8.20;99.90
5258;DHT22;2651;51.594;9.928;2024-03-29T00:05:41;8.30;99.90
5258;DHT22;2651;51.594;9.928;2024-03-29T00:06:41;8.30;99.90
5258;DHT22;2651;51.594;9.928;2024-03-29T00:07:42;8.30;99.90
5258;DHT22;2651;51.594;9.928;2024-03-29T00:08:43;8.30;99.90
5258;DHT22;2651;51.594;9.928;2024-03-29T00:09:44;8.30;99.90
5258;DHT22;2651;51.594;9.928;2024-03-29T00:10:47;8.30;99.90
5258;DHT22;2651;51.594;9.928;2024-03-29T00:11:48;8.30;99.90
5258;DHT22;2651;51.594;9.928;2024-03-29T00:12:49;8.20;99.90
5258;DHT22;2651;51.594;9.928;2024-03-29T00:13:49;8.30;99.90
5258;DHT22;2651;51.594;9.928;2024-03-29T00:14:50;8.30;99.90
5258;DHT22;2651;51.594;9.928;2024-03-29T00:15:52;8.30;99.90
5258;DHT22;2651;51.594;9.928;2024-03-29T00:16:52;8.20;99.90
5258;DHT22;2651;51.594;9.928;2024-03-29T00:17:53;8.20;99.90
5258;DHT22;2651;51.594;9.928;2024-03-29T00:18:54;8.20;99.90
5258;DHT22;2651;51.594;9.928;2024-03-29T00:19:54;8.20;99.90
5258;DHT22;2651;51.594;9.928;2024-03-29T00:20:55;8.20;99.90
5258;DHT22;2651;51.594;9.928;2024-03-29T00:21:56;8.20;99.90
5258;DHT22;2651;51.594;9.928;2024-03-29T00:22:57;8.20;99.90
5258;DHT22;2651;51.594;9.928;2024-03-29T00:23:57;8.20;99.90
5258;DHT22;2651;51.594;9.928;2024-03-29T00:24:58;8.20;99.90
5258;DHT22;2651;51.594;9.928;2024-03-29T00:25:59;8.10;99.90
5258;DHT22;2651;51.594;9.928;2024-03-29T00:26:59;8.10;99.90
5258;DHT22;2651;51.594;9.928;2024-03-29T00:28:00;8.10;99.90
5258;DHT22;2651;51.594;9.928;2024-03-29T00:29:01;8.10;99.90
5258;DHT22;2651;51.594;9.928;2024-03-29T00:30:02;8.10;99.90
5258;DHT22;2651;51.594;9.928;2024-03-29T00:31:04;8.10;99.90
5258;DHT22;2651;51.594;9.928;2024-03-29T00:32:05;8.10;99.90
5258;DHT22;2651;51.594;9.928;2024-03-29T00:33:06;8.10;99.90
5258;DHT22;2651;51.594;9.928;2024-03-29T00:34:06;8.10;99.90
5258;DHT22;2651;51.594;9.928;2024-03-29T00:35:07;8.10;99.90
5258;DHT22;2651;51.594;9.928;2024-03-29T00:36:08;8.10;99.90
5258;DHT22;2651;51.594;9.928;2024-03-29T00:37:09;8.10;99.90
5258;DHT22;2651;51.594;9.928;2024-03-29T00:38:10;8.10;99.90
5258;DHT22;2651;51.594;9.928;2024-03-29T00:39:10;8.10;99.90
5258;DHT22;2651;51.594;9.928;2024-03-29T00:40:12;8.10;99.90
5258;DHT22;2651;51.594;9.928;2024-03-29T00:41:12;8.10;99.90
5258;DHT22;2651;51.594;9.928;2024-03-29T00:42:13;8.10;99.90
5258;DHT22;2651;51.594;9.928;2024-03-29T00:43:15;8.00;99.90
5258;DHT22;2651;51.594;9.928;2024-03-29T00:44:16;8.10;99.90
5258;DHT22;2651;51.594;9.928;2024-03-29T00:45:17;8.00;99.90
5258;DHT22;2651;51.594;9.928;2024-03-29T00:46:18;8.00;99.90
5258;DHT22;2651;51.594;9.928;2024-03-29T00:47:19;8.00;99.90
5258;DHT22;2651;51.594;9.928;2024-03-29T00:48:19;8.00;99.90
5258;DHT22;2651;51.594;9.928;2024-03-29T00:49:21;8.00;99.90
5258;DHT22;2651;51.594;9.928;2024-03-29T00:50:22;8.00;99.90
5258;DHT22;2651;51.594;9.928;2024-03-29T00:51:22;8.00;99.90
5258;DHT22;2651;51.594;9.928;2024-03-29T00:52:23;8.00;99.90
5258;DHT22;2651;51.594;9.928;2024-03-29T00:53:24;8.00;99.90
5258;DHT22;2651;51.594;9.928;2024-03-29T00:54:24;8.00;99.90
5258;DHT22;2651;51.594;9.928;2024-03-29T00:55:25;8.00;99.90
5258;DHT22;2651;51.594;9.928;2024-03-29T00:56:26;8.00;99.90
5258;DHT22;2651;51.594;9.928;2024-03-29T00:57:27;8.00;99.90
5258;DHT22;2651;51.594;9.928;2024-03-29T00:58:28;8.00;99.90
5258;DHT22;2651;51.594;9.928;2024-03-29T00:59:29;8.00;99.90
5258;DHT22;2651;51.594;9.928;2024-03-29T01:00:30;8.00;99.90
5258;DHT22;2651;51.594;9.928;2024-03-29T01:01:30;8.00;99.90
5258;DHT22;2651;51.594;9.928;2024-03-29T01:02:31;8.00;99.90
5258;DHT22;2651;51.594;9.928;2024-03-29T01:03:32;8.00;99.90
5258;DHT22;2651;51.594;9.928;2024-03-29T01:04:33;8.00;99.90
5258;DHT22;2651;51.594;9.928;2024-03-29T01:05:33;8.00;99.90
5258;DHT22;2651;51.594;9.928;2024-03-29T01:06:34;8.00;99.90
5258;DHT22;2651;51.594;9.928;2024-03-29T01:07:35;8.00;99.90
5258;DHT22;2651;51.594;9.928;2024-03-29T01:08:35;8.00;99.90
5258;DHT22;2651;51.594;9.928;2024-03-29T01:09:36;8.00;99.90
5258;DHT22;2651;51.594;9.928;2024-03-29T01:10:37;8.00;99.90
5258;DHT22;2651;51.594;9.928;2024-03-29T01:11:38;8.00;99.90
5258;DHT22;2651;51.594;9.928;2024-03-29T01:12:39;8.00;99.90
5258;DHT22;2651;51.594;9.928;2024-03-29T01:13:40;8.00;99.90
5258;DHT22;2651;51.594;9.928;2024-03-29T01:14:40;8.00;99.90
5258;DHT22;2651;51.594;9.928;2024-03-29T01:15:41;7.90;99.90
5258;DHT22;2651;51.594;9.928;2024-03-29T01:16:42;8.00;99.90
5258;DHT22;2651;51.594;9.928;2024-03-29T01:17:43;7.90;99.90
5258;DHT22;2651;51.594;9.928;2024-03-29T01:18:43;7.90;99.90
5258;DHT22;2651;51.594;9.928;2024-03-29T01:19:44;7.90;99.90
5258;DHT22;2651;51.594;9.928;2024-03-29T01:20:45;7.90;99.90
5258;DHT22;2651;51.594;9.928;2024-03-29T01:21:46;7.90;99.90
5258;DHT22;2651;51.594;9.928;2024-03-29T01:22:46;7.90;99.90
5258;DHT22;2651;51.594;9.928;2024-03-29T01:23:47;7.90;99.90
5258;DHT22;2651;51.594;9.928;2024-03-29T01:24:48;7.90;99.90
5258;DHT22;2651;51.594;9.928;2024-03-29T01:25:48;8.00;99.90
5258;DHT22;2651;51.594;9.928;2024-03-29T01:26:49;7.90;99.90
5258;DHT22;2651;51.594;9.928;2024-03-29T01:27:50;7.90;99.90
5258;DHT22;2651;51.594;9.928;2024-03-29T01:28:51;7.90;99.90
5258;DHT22;2651;51.594;9.928;2024-03-29T01:29:51;7.90;99.90
5258;DHT22;2651;51.594;9.928;2024-03-29T01:30:55;7.80;99.90
5258;DHT22;2651;51.594;9.928;2024-03-29T01:31:55;7.80;99.90
5258;DHT22;2651;51.594;9.928;2024-03-29T01:32:56;7.80;99.90
5258;DHT22;2651;51.594;9.928;2024-03-29T01:33:57;7.80;99.90
5258;DHT22;2651;51.594;9.928;2024-03-29T01:34:59;7.80;99.90
5258;DHT22;2651;51.594;9.928;2024-03-29T01:35:59;7.80;99.90
5258;DHT22;2651;51.594;9.928;2024-03-29T01:37:00;7.80;99.90
5258;DHT22;2651;51.594;9.928;2024-03-29T01:38:01;7.80;99.90
5258;DHT22;2651;51.594;9.928;2024-03-29T01:39:02;7.80;99.90
5258;DHT22;2651;51.594;9.928;2024-03-29T01:40:03;7.80;99.90
5258;DHT22;2651;51.594;9.928;2024-03-29T01:41:04;7.80;99.90
5258;DHT22;2651;51.594;9.928;2024-03-29T01:42:05;7.80;99.90
5258;DHT22;2651;51.594;9.928;2024-03-29T01:43:05;7.80;99.90
5258;DHT22;2651;51.594;9.928;2024-03-29T01:44:08;7.80;99.90
5258;DHT22;2651;51.594;9.928;2024-03-29T01:45:09;7.80;99.90
5258;DHT22;2651;51.594;9.928;2024-03-29T01:46:10;7.80;99.90
5258;DHT22;2651;51.594;9.928;2024-03-29T01:47:11;7.80;99.90
5258;DHT22;2651;51.594;9.928;2024-03-29T01:48:12;7.80;99.90
5258;DHT22;2651;51.594;9.928;2024-03-29T01:49:12;7.80;99.90
5258;DHT22;2651;51.594;9.928;2024-03-29T01:50:14;7.80;99.90
5258;DHT22;2651;51.594;9.928;2024-03-29T01:51:15;7.90;99.90
5258;DHT22;2651;51.594;9.928;2024-03-29T01:52:16;7.80;99.90
5258;DHT22;2651;51.594;9.928;2024-03-29T01:53:19;7.90;99.90
5258;DHT22;2651;51.594;9.928;2024-03-29T01:54:20;7.90;99.90
5258;DHT22;2651;51.594;9.928;2024-03-29T01:55:20;7.90;99.90
5258;DHT22;2651;51.594;9.928;2024-03-29T01:56:22;7.90;99.90
5258;DHT22;2651;51.594;9.928;2024-03-29T01:57:23;7.80;99.90
5258;DHT22;2651;51.594;9.928;2024-03-29T01:58:24;7.80;99.90
5258;DHT22;2651;51.594;9.928;2024-03-29T01:59:25;7.80;99.90
5258;DHT22;2651;51.594;9.928;2024-03-29T02:00:27;7.80;99.90
5258;DHT22;2651;51.594;9.928;2024-03-29T02:01:30;7.80;99.90
5258;DHT22;2651;51.594;9.928;2024-03-29T02:02:32;7.80;99.90
5258;DHT22;2651;51.594;9.928;2024-03-29T02:03:32;7.90;99.90
5258;DHT22;2651;51.594;9.928;2024-03-29T02:04:34;7.90;99.90
5258;DHT22;2651;51.594;9.928;2024-03-29T02:05:40;7.90;99.90
5258;DHT22;2651;51.594;9.928;2024-03-29T02:06:41;7.80;99.90
5258;DHT22;2651;51.594;9.928;2024-03-29T02:07:42;7.80;99.90
5258;DHT22;2651;51.594;9.928;2024-03-29T02:08:49;7.80;99.90
5258;DHT22;2651;51.594;9.928;2024-03-29T02:09:50;7.80;99.90
5258;DHT22;2651;51.594;9.928;2024-03-29T02:10:51;7.80;99.90
5258;DHT22;2651;51.594;9.928;2024-03-29T02:11:52;7.80;99.90
5258;DHT22;2651;51.594;9.928;2024-03-29T02:12:53;7.80;99.90
5258;DHT22;2651;51.594;9.928;2024-03-29T02:13:53;7.80;99.90
5258;DHT22;2651;51.594;9.928;2024-03-29T02:14:54;7.80;99.90
5258;DHT22;2651;51.594;9.928;2024-03-29T02:15:55;7.80;99.90
5258;DHT22;2651;51.594;9.928;2024-03-29T02:16:56;7.80;99.90
5258;DHT22;2651;51.594;9.928;2024-03-29T02:17:57;7.80;99.90
5258;DHT22;2651;51.594;9.928;2024-03-29T02:18:58;7.80;99.90
5258;DHT22;2651;51.594;9.928;2024-03-29T02:19:59;7.80;99.90
5258;DHT22;2651;51.594;9.928;2024-03-29T02:20:59;7.80;99.90
5258;DHT22;2651;51.594;9.928;2024-03-29T02:22:01;7.80;99.90
5258;DHT22;2651;51.594;9.928;2024-03-29T02:23:14;7.80;99.90
5258;DHT22;2651;51.594;9.928;2024-03-29T02:24:16;7.80;99.90
5258;DHT22;2651;51.594;9.928;2024-03-29T02:25:18;7.80;99.90
5258;DHT22;2651;51.594;9.928;2024-03-29T02:26:19;7.80;99.90
5258;DHT22;2651;51.594;9.928;2024-03-29T02:27:21;7.80;99.90
5258;DHT22;2651;51.594;9.928;2024-03-29T02:28:24;7.80;99.90
5258;DHT22;2651;51.594;9.928;2024-03-29T02:29:25;7.80;99.90
5258;DHT22;2651;51.594;9.928;2024-03-29T02:30:26;7.80;99.90
5258;DHT22;2651;51.594;9.928;2024-03-29T02:31:27;7.80;99.90
5258;DHT22;2651;51.594;9.928;2024-03-29T02:32:28;7.90;99.90
5258;DHT22;2651;51.594;9.928;2024-03-29T02:33:29;7.90;99.90
5258;DHT22;2651;51.594;9.928;2024-03-29T02:34:30;7.90;99.90
5258;DHT22;2651;51.594;9.928;2024-03-29T02:35:30;7.90;99.90
5258;DHT22;2651;51.594;9.928;2024-03-29T02:36:31;7.90;99.90
5258;DHT22;2651;51.594;9.928;2024-03-29T02:37:32;7.90;99.90
5258;DHT22;2651;51.594;9.928;2024-03-29T02:38:33;8.00;99.90
5258;DHT22;2651;51.594;9.928;2024-03-29T02:39:33;8.00;99.90
5258;DHT22;2651;51.594;9.928;2024-03-29T02:40:34;8.00;99.90
5258;DHT22;2651;51.594;9.928;2024-03-29T02:41:35;8.00;99.90
5258;DHT22;2651;51.594;9.928;2024-03-29T02:42:36;8.00;99.90
5258;DHT22;2651;51.594;9.928;2024-03-29T02:43:36;8.00;99.90
5258;DHT22;2651;51.594;9.928;2024-03-29T02:44:37;8.00;99.90
5258;DHT22;2651;51.594;9.928;2024-03-29T02:45:38;8.00;99.90
5258;DHT22;2651;51.594;9.928;2024-03-29T02:46:38;8.00;99.90
5258;DHT22;2651;51.594;9.928;2024-03-29T02:47:39;8.10;99.90
5258;DHT22;2651;51.594;9.928;2024-03-29T02:48:40;8.10;99.90
5258;DHT22;2651;51.594;9.928;2024-03-29T02:49:41;8.10;99.90
5258;DHT22;2651;51.594;9.928;2024-03-29T02:50:42;8.10;99.90
5258;DHT22;2651;51.594;9.928;2024-03-29T02:51:43;8.10;99.90
5258;DHT22;2651;51.594;9.928;2024-03-29T02:52:45;8.10;99.90
5258;DHT22;2651;51.594;9.928;2024-03-29T02:53:46;8.10;99.90
5258;DHT22;2651;51.594;9.928;2024-03-29T02:54:46;8.10;99.90
5258;DHT22;2651;51.594;9.928;2024-03-29T02:55:47;8.10;99.90
5258;DHT22;2651;51.594;9.928;2024-03-29T02:56:48;8.10;99.90
5258;DHT22;2651;51.594;9.928;2024-03-29T02:57:48;8.10;99.90
5258;DHT22;2651;51.594;9.928;2024-03-29T02:58:49;8.10;99.90
5258;DHT22;2651;51.594;9.928;2024-03-29T02:59:50;8.10;99.90
5258;DHT22;2651;51.594;9.928;2024-03-29T03:00:51;8.10;99.90
5258;DHT22;2651;51.594;9.928;2024-03-29T03:01:51;8.10;99.90
5258;DHT22;2651;51.594;9.928;2024-03-29T03:02:52;8.10;99.90
5258;DHT22;2651;51.594;9.928;2024-03-29T03:03:53;8.20;99.90
5258;DHT22;2651;51.594;9.928;2024-03-29T03:04:53;8.20;99.90
5258;DHT22;2651;51.594;9.928;2024-03-29T03:05:54;8.20;99.90
5258;DHT22;2651;51.594;9.928;2024-03-29T03:06:55;8.20;99.90
5258;DHT22;2651;51.594;9.928;2024-03-29T03:08:06;8.20;99.90
5258;DHT22;2651;51.594;9.928;2024-03-29T03:09:26;8.10;99.90
5258;DHT22;2651;51.594;9.928;2024-03-29T03:10:46;8.10;99.90
5258;DHT22;2651;51.594;9.928;2024-03-29T03:12:02;8.20;99.90
5258;DHT22;2651;51.594;9.928;2024-03-29T03:13:03;8.20;99.90
5258;DHT22;2651;51.594;9.928;2024-03-29T03:14:04;8.20;99.90
5258;DHT22;2651;51.594;9.928;2024-03-29T03:15:05;8.20;99.90
5258;DHT22;2651;51.594;9.928;2024-03-29T03:16:06;8.20;99.90
5258;DHT22;2651;51.594;9.928;2024-03-29T03:17:07;8.20;99.90
5258;DHT22;2651;51.594;9.928;2024-03-29T03:18:07;8.20;99.90
5258;DHT22;2651;51.594;9.928;2024-03-29T03:19:08;8.20;99.90
5258;DHT22;2651;51.594;9.928;2024-03-29T03:20:09;8.20;99.90
5258;DHT22;2651;51.594;9.928;2024-03-29T03:21:10;8.20;99.90
5258;DHT22;2651;51.594;9.928;2024-03-29T03:22:11;8.20;99.90
5258;DHT22;2651;51.594;9.928;2024-03-29T03:23:11;8.20;99.90
5258;DHT22;2651;51.594;9.928;2024-03-29T03:24:12;8.20;99.90
5258;DHT22;2651;51.594;9.928;2024-03-29T03:25:13;8.30;99.90
5258;DHT22;2651;51.594;9.928;2024-03-29T03:26:14;8.20;99.90
5258;DHT22;2651;51.594;9.928;2024-03-29T03:27:14;8.20;99.90
5258;DHT22;2651;51.594;9.928;2024-03-29T03:28:15;8.20;99.90
5258;DHT22;2651;51.594;9.928;2024-03-29T03:29:16;8.20;99.90
5258;DHT22;2651;51.594;9.928;2024-03-29T03:30:16;8.20;99.90
5258;DHT22;2651;51.594;9.928;2024-03-29T03:31:17;8.20;99.90
5258;DHT22;2651;51.594;9.928;2024-03-29T03:32:18;8.20;99.90
5258;DHT22;2651;51.594;9.928;2024-03-29T03:33:20;8.30;99.90
5258;DHT22;2651;51.594;9.928;2024-03-29T03:34:20;8.30;99.90
5258;DHT22;2651;51.594;9.928;2024-03-29T03:35:21;8.30;99.90
5258;DHT22;2651;51.594;9.928;2024-03-29T03:36:22;8.30;99.90
5258;DHT22;2651;51.594;9.928;2024-03-29T03:37:23;8.30;99.90
5258;DHT22;2651;51.594;9.928;2024-03-29T03:38:24;8.30;99.90
5258;DHT22;2651;51.594;9.928;2024-03-29T03:39:25;8.30;99.90
5258;DHT22;2651;51.594;9.928;2024-03-29T03:40:25;8.30;99.90
5258;DHT22;2651;51.594;9.928;2024-03-29T03:41:26;8.30;99.90
5258;DHT22;2651;51.594;9.928;2024-03-29T03:42:27;8.30;99.90
5258;DHT22;2651;51.594;9.928;2024-03-29T03:43:28;8.40;99.90
5258;DHT22;2651;51.594;9.928;2024-03-29T03:44:28;8.40;99.90
5258;DHT22;2651;51.594;9.928;2024-03-29T03:45:34;8.40;99.90
5258;DHT22;2651;51.594;9.928;2024-03-29T03:46:35;8.40;99.90
5258;DHT22;2651;51.594;9.928;2024-03-29T03:47:35;8.40;99.90
5258;DHT22;2651;51.594;9.928;2024-03-29T03:48:36;8.40;99.90
5258;DHT22;2651;51.594;9.928;2024-03-29T03:49:37;8.40;99.90
5258;DHT22;2651;51.594;9.928;2024-03-29T03:50:38;8.30;99.90
5258;DHT22;2651;51.594;9.928;2024-03-29T03:51:39;8.30;99.90
5258;DHT22;2651;51.594;9.928;2024-03-29T03:52:39;8.30;99.90
5258;DHT22;2651;51.594;9.928;2024-03-29T03:53:40;8.30;99.90
5258;DHT22;2651;51.594;9.928;2024-03-29T03:54:41;8.30;99.90
5258;DHT22;2651;51.594;9.928;2024-03-29T03:55:42;8.30;99.90
5258;DHT22;2651;51.594;9.928;2024-03-29T03:56:43;8.30;99.90
5258;DHT22;2651;51.594;9.928;2024-03-29T03:57:43;8.30;99.90
5258;DHT22;2651;51.594;9.928;2024-03-29T03:58:44;8.30;99.90
5258;DHT22;2651;51.594;9.928;2024-03-29T03:59:45;8.30;99.90
5258;DHT22;2651;51.594;9.928;2024-03-29T04:00:46;8.20;99.90
5258;DHT22;2651;51.594;9.928;2024-03-29T04:01:47;8.20;99.90
5258;DHT22;2651;51.594;9.928;2024-03-29T04:02:52;8.20;99.90
5258;DHT22;2651;51.594;9.928;2024-03-29T04:03:52;8.20;99.90
5258;DHT22;2651;51.594;9.928;2024-03-29T04:04:53;8.20;99.90
5258;DHT22;2651;51.594;9.928;2024-03-29T04:05:54;8.20;99.90
5258;DHT22;2651;51.594;9.928;2024-03-29T04:06:55;8.20;99.90
5258;DHT22;2651;51.594;9.928;2024-03-29T04:07:55;8.20;99.90
5258;DHT22;2651;51.594;9.928;2024-03-29T04:08:56;8.20;99.90
5258;DHT22;2651;51.594;9.928;2024-03-29T04:09:57;8.20;99.90
5258;DHT22;2651;51.594;9.928;2024-03-29T04:11:01;8.20;99.90
5258;DHT22;2651;51.594;9.928;2024-03-29T04:12:02;8.20;99.90
5258;DHT22;2651;51.594;9.928;2024-03-29T04:13:03;8.20;99.90
5258;DHT22;2651;51.594;9.928;2024-03-29T04:14:04;8.20;99.90
5258;DHT22;2651;51.594;9.928;2024-03-29T04:15:05;8.10;99.90
5258;DHT22;2651;51.594;9.928;2024-03-29T04:16:07;8.10;99.90
5258;DHT22;2651;51.594;9.928;2024-03-29T04:17:07;8.10;99.90
5258;DHT22;2651;51.594;9.928;2024-03-29T04:18:08;8.10;99.90
5258;DHT22;2651;51.594;9.928;2024-03-29T04:19:09;8.10;99.90
5258;DHT22;2651;51.594;9.928;2024-03-29T04:20:10;8.10;99.90
5258;DHT22;2651;51.594;9.928;2024-03-29T04:21:11;8.10;99.90
5258;DHT22;2651;51.594;9.928;2024-03-29T04:22:11;8.10;99.90
5258;DHT22;2651;51.594;9.928;2024-03-29T04:23:12;8.10;99.90
5258;DHT22;2651;51.594;9.928;2024-03-29T04:24:13;8.10;99.90
5258;DHT22;2651;51.594;9.928;2024-03-29T04:25:14;8.10;99.90
5258;DHT22;2651;51.594;9.928;2024-03-29T04:26:15;8.10;99.90
5258;DHT22;2651;51.594;9.928;2024-03-29T04:27:16;8.10;99.90
5258;DHT22;2651;51.594;9.928;2024-03-29T04:28:17;8.10;99.90
5258;DHT22;2651;51.594;9.928;2024-03-29T04:29:18;8.10;99.90
5258;DHT22;2651;51.594;9.928;2024-03-29T04:30:18;8.10;99.90
5258;DHT22;2651;51.594;9.928;2024-03-29T04:31:19;8.10;99.90
5258;DHT22;2651;51.594;9.928;2024-03-29T04:32:20;8.10;99.90
5258;DHT22;2651;51.594;9.928;2024-03-29T04:33:21;8.10;99.90
5258;DHT22;2651;51.594;9.928;2024-03-29T04:34:22;8.10;99.90
5258;DHT22;2651;51.594;9.928;2024-03-29T04:35:22;8.10;99.90
5258;DHT22;2651;51.594;9.928;2024-03-29T04:36:23;8.00;99.90
5258;DHT22;2651;51.594;9.928;2024-03-29T04:37:24;8.10;99.90
5258;DHT22;2651;51.594;9.928;2024-03-29T04:38:25;8.10;99.90
5258;DHT22;2651;51.594;9.928;2024-03-29T04:39:27;8.00;99.90
5258;DHT22;2651;51.594;9.928;2024-03-29T04:40:28;8.10;99.90
5258;DHT22;2651;51.594;9.928;2024-03-29T04:41:29;8.10;99.90
5258;DHT22;2651;51.594;9.928;2024-03-29T04:42:34;8.10;99.90
5258;DHT22;2651;51.594;9.928;2024-03-29T04:43:35;8.10;99.90
5258;DHT22;2651;51.594;9.928;2024-03-29T04:44:36;8.10;99.90
5258;DHT22;2651;51.594;9.928;2024-03-29T04:45:37;8.10;99.90
5258;DHT22;2651;51.594;9.928;2024-03-29T04:46:37;8.10;99.90
5258;DHT22;2651;51.594;9.928;2024-03-29T04:47:38;8.10;99.90
5258;DHT22;2651;51.594;9.928;2024-03-29T04:48:40;8.10;99.90
5258;DHT22;2651;51.594;9.928;2024-03-29T04:49:42;8.10;99.90
5258;DHT22;2651;51.594;9.928;2024-03-29T04:50:42;8.10;99.90
5258;DHT22;2651;51.594;9.928;2024-03-29T04:51:43;8.10;99.90
5258;DHT22;2651;51.594;9.928;2024-03-29T04:52:44;8.10;99.90
5258;DHT22;2651;51.594;9.928;2024-03-29T04:53:45;8.10;99.90
5258;DHT22;2651;51.594;9.928;2024-03-29T04:54:46;8.00;99.90
5258;DHT22;2651;51.594;9.928;2024-03-29T04:55:53;8.10;99.90
5258;DHT22;2651;51.594;9.928;2024-03-29T04:56:54;8.10;99.90
5258;DHT22;2651;51.594;9.928;2024-03-29T04:57:55;8.00;99.90
5258;DHT22;2651;51.594;9.928;2024-03-29T04:58:56;8.00;99.90
5258;DHT22;2651;51.594;9.928;2024-03-29T04:59:56;8.00;99.90
5258;DHT22;2651;51.594;9.928;2024-03-29T05:00:57;8.10;99.90
5258;DHT22;2651;51.594;9.928;2024-03-29T05:01:59;8.00;99.90
5258;DHT22;2651;51.594;9.928;2024-03-29T05:03:00;8.00;99.90
5258;DHT22;2651;51.594;9.928;2024-03-29T05:04:01;8.10;99.90
5258;DHT22;2651;51.594;9.928;2024-03-29T05:05:01;8.10;99.90
5258;DHT22;2651;51.594;9.928;2024-03-29T05:06:02;8.10;99.90
5258;DHT22;2651;51.594;9.928;2024-03-29T05:07:03;8.10;99.90
5258;DHT22;2651;51.594;9.928;2024-03-29T05:08:04;8.10;99.90
5258;DHT22;2651;51.594;9.928;2024-03-29T05:09:05;8.20;99.90
5258;DHT22;2651;51.594;9.928;2024-03-29T05:10:06;8.20;99.90
5258;DHT22;2651;51.594;9.928;2024-03-29T05:11:07;8.20;99.90
5258;DHT22;2651;51.594;9.928;2024-03-29T05:12:08;8.20;99.90
5258;DHT22;2651;51.594;9.928;2024-03-29T05:13:09;8.20;99.90
5258;DHT22;2651;51.594;9.928;2024-03-29T05:14:10;8.20;99.90
5258;DHT22;2651;51.594;9.928;2024-03-29T05:15:10;8.20;99.90
5258;DHT22;2651;51.594;9.928;2024-03-29T05:16:12;8.20;99.90
5258;DHT22;2651;51.594;9.928;2024-03-29T05:17:12;8.20;99.90
5258;DHT22;2651;51.594;9.928;2024-03-29T05:18:13;8.20;99.90
5258;DHT22;2651;51.594;9.928;2024-03-29T05:19:15;8.30;99.90
5258;DHT22;2651;51.594;9.928;2024-03-29T05:20:16;8.30;99.90
5258;DHT22;2651;51.594;9.928;2024-03-29T05:21:16;8.30;99.90
5258;DHT22;2651;51.594;9.928;2024-03-29T05:22:17;8.30;99.90
5258;DHT22;2651;51.594;9.928;2024-03-29T05:23:18;8.30;99.90
5258;DHT22;2651;51.594;9.928;2024-03-29T05:24:18;8.40;99.90
5258;DHT22;2651;51.594;9.928;2024-03-29T05:25:19;8.40;99.90
5258;DHT22;2651;51.594;9.928;2024-03-29T05:26:20;8.40;99.90
5258;DHT22;2651;51.594;9.928;2024-03-29T05:27:21;8.40;99.90
5258;DHT22;2651;51.594;9.928;2024-03-29T05:28:21;8.40;99.90
5258;DHT22;2651;51.594;9.928;2024-03-29T05:29:22;8.40;99.90
5258;DHT22;2651;51.594;9.928;2024-03-29T05:30:23;8.40;99.90
5258;DHT22;2651;51.594;9.928;2024-03-29T05:31:25;8.40;99.90
5258;DHT22;2651;51.594;9.928;2024-03-29T05:32:26;8.30;99.90
5258;DHT22;2651;51.594;9.928;2024-03-29T05:33:26;8.30;1.00
5258;DHT22;2651;51.594;9.928;2024-03-29T05:34:27;8.30;1.00
5258;DHT22;2651;51.594;9.928;2024-03-29T05:35:28;8.30;1.00
5258;DHT22;2651;51.594;9.928;2024-03-29T05:36:29;8.30;1.00
5258;DHT22;2651;51.594;9.928;2024-03-29T05:37:30;8.40;1.00
5258;DHT22;2651;51.594;9.928;2024-03-29T05:38:31;8.30;1.00
5258;DHT22;2651;51.594;9.928;2024-03-29T05:39:32;8.30;1.00
5258;DHT22;2651;51.594;9.928;2024-03-29T05:40:32;8.30;1.00
5258;DHT22;2651;51.594;9.928;2024-03-29T05:41:33;8.30;1.00
5258;DHT22;2651;51.594;9.928;2024-03-29T05:42:34;8.30;1.00
5258;DHT22;2651;51.594;9.928;2024-03-29T05:43:38;8.30;1.00
5258;DHT22;2651;51.594;9.928;2024-03-29T05:44:39;8.30;1.00
5258;DHT22;2651;51.594;9.928;2024-03-29T05:45:40;8.30;1.00
5258;DHT22;2651;51.594;9.928;2024-03-29T05:46:40;8.30;1.00
5258;DHT22;2651;51.594;9.928;2024-03-29T05:47:41;8.30;1.00
5258;DHT22;2651;51.594;9.928;2024-03-29T05:48:42;8.40;1.00
5258;DHT22;2651;51.594;9.928;2024-03-29T05:49:43;8.30;1.00
5258;DHT22;2651;51.594;9.928;2024-03-29T05:50:43;8.30;1.00
5258;DHT22;2651;51.594;9.928;2024-03-29T05:51:44;8.30;1.00
5258;DHT22;2651;51.594;9.928;2024-03-29T05:52:45;8.30;47.60
5258;DHT22;2651;51.594;9.928;2024-03-29T05:53:45;8.30;99.90
5258;DHT22;2651;51.594;9.928;2024-03-29T05:54:46;8.30;99.90
5258;DHT22;2651;51.594;9.928;2024-03-29T05:55:47;8.20;99.90
5258;DHT22;2651;51.594;9.928;2024-03-29T05:56:48;8.20;99.90
5258;DHT22;2651;51.594;9.928;2024-03-29T05:57:49;8.10;99.90
5258;DHT22;2651;51.594;9.928;2024-03-29T05:58:50;8.20;99.90
5258;DHT22;2651;51.594;9.928;2024-03-29T05:59:50;8.20;8.10
5258;DHT22;2651;51.594;9.928;2024-03-29T06:00:51;8.20;1.00
5258;DHT22;2651;51.594;9.928;2024-03-29T06:01:52;8.30;1.00
5258;DHT22;2651;51.594;9.928;2024-03-29T06:02:52;8.30;1.00
5258;DHT22;2651;51.594;9.928;2024-03-29T06:03:53;8.30;1.00
5258;DHT22;2651;51.594;9.928;2024-03-29T06:04:56;8.40;1.00
5258;DHT22;2651;51.594;9.928;2024-03-29T06:05:57;8.40;1.00
5258;DHT22;2651;51.594;9.928;2024-03-29T06:07:02;8.40;1.00
5258;DHT22;2651;51.594;9.928;2024-03-29T06:08:03;8.50;1.00
5258;DHT22;2651;51.594;9.928;2024-03-29T06:09:06;8.50;1.00
5258;DHT22;2651;51.594;9.928;2024-03-29T06:10:06;8.50;1.00
5258;DHT22;2651;51.594;9.928;2024-03-29T06:11:09;8.50;1.00
5258;DHT22;2651;51.594;9.928;2024-03-29T06:12:10;8.50;1.00
5258;DHT22;2651;51.594;9.928;2024-03-29T06:13:12;8.50;1.00
5258;DHT22;2651;51.594;9.928;2024-03-29T06:14:30;8.50;1.00
5258;DHT22;2651;51.594;9.928;2024-03-29T06:15:49;8.50;1.00
5258;DHT22;2651;51.594;9.928;2024-03-29T06:17:09;8.50;1.00
5258;DHT22;2651;51.594;9.928;2024-03-29T06:18:25;8.50;1.00
5258;DHT22;2651;51.594;9.928;2024-03-29T06:19:25;8.50;1.00
5258;DHT22;2651;51.594;9.928;2024-03-29T06:20:28;8.50;1.00
5258;DHT22;2651;51.594;9.928;2024-03-29T06:21:28;8.50;1.00
5258;DHT22;2651;51.594;9.928;2024-03-29T06:22:29;8.50;1.00
5258;DHT22;2651;51.594;9.928;2024-03-29T06:23:31;8.50;1.00
5258;DHT22;2651;51.594;9.928;2024-03-29T06:24:31;8.50;1.00
5258;DHT22;2651;51.594;9.928;2024-03-29T06:25:33;8.50;1.00
5258;DHT22;2651;51.594;9.928;2024-03-29T06:26:34;8.50;1.00
5258;DHT22;2651;51.594;9.928;2024-03-29T06:27:36;8.50;1.00
5258;DHT22;2651;51.594;9.928;2024-03-29T06:28:38;8.50;1.00
5258;DHT22;2651;51.594;9.928;2024-03-29T06:29:38;8.50;1.00
5258;DHT22;2651;51.594;9.928;2024-03-29T06:30:40;8.50;1.00
5258;DHT22;2651;51.594;9.928;2024-03-29T06:31:41;8.50;1.00
5258;DHT22;2651;51.594;9.928;2024-03-29T06:32:42;8.50;1.00
5258;DHT22;2651;51.594;9.928;2024-03-29T06:33:43;8.60;1.00
5258;DHT22;2651;51.594;9.928;2024-03-29T06:34:47;8.60;21.70
5258;DHT22;2651;51.594;9.928;2024-03-29T06:35:54;8.60;41.80
5258;DHT22;2651;51.594;9.928;2024-03-29T06:36:55;8.50;99.90
5258;DHT22;2651;51.594;9.928;2024-03-29T06:37:57;8.50;99.90
5258;DHT22;2651;51.594;9.928;2024-03-29T06:38:58;8.60;99.90
5258;DHT22;2651;51.594;9.928;2024-03-29T06:39:59;8.60;99.90
5258;DHT22;2651;51.594;9.928;2024-03-29T06:40:59;8.60;99.90
5258;DHT22;2651;51.594;9.928;2024-03-29T06:42:00;8.60;99.90
5258;DHT22;2651;51.594;9.928;2024-03-29T06:43:01;8.60;99.90
5258;DHT22;2651;51.594;9.928;2024-03-29T06:44:03;8.60;99.90
5258;DHT22;2651;51.594;9.928;2024-03-29T06:45:04;8.60;99.90
5258;DHT22;2651;51.594;9.928;2024-03-29T06:46:06;8.60;99.90
5258;DHT22;2651;51.594;9.928;2024-03-29T06:47:07;8.60;99.90
5258;DHT22;2651;51.594;9.928;2024-03-29T06:48:09;8.60;1.00